Time;durP1;ratioP1;P1;durP2;ratioP2;P2;SDS_P1;SDS_P2;PMS_P1;PMS_P2;Temp;Humidity;BMP_temperature;BMP_pressure;BME280_temperature;BME280_humidity;BME280_pressure;Samples;Min_cycle;Max_cycle;Signal;HPM_P1;HPM_P2
2021/12/08 00:02:17;;;;;;;;;;;0.90;99.90;;;;;;5100202;28;19908;-85
2021/12/08 00:04:44;;;;;;;;;;;0.50;99.90;;;;;;5100996;28;19912;-83
2021/12/08 00:07:11;;;;;;;;;;;0.40;99.90;;;;;;5101126;28;19925;-85
2021/12/08 00:09:49;;;;;;;;;;;0.90;99.90;;;;;;5098865;28;19933;-86
2021/12/08 00:15:00;;;;;;;;;;;0.50;99.90;;;;;;5100712;28;19951;-87
2021/12/08 00:17:28;;;;;;;;;;;0.90;99.90;;;;;;5097841;28;19959;-87
2021/12/08 00:20:00;;;;;;;;;;;0.00;99.90;;;;;;5095992;28;19924;-86
2021/12/08 00:22:26;;;;;;;;;;;0.30;99.90;;;;;;5094328;28;19924;-86
2021/12/08 00:24:53;;;;;;;;;;;0.30;99.90;;;;;;5091057;28;19925;-87
2021/12/08 00:27:19;;;;;;;;;;;0.20;99.90;;;;;;5090130;28;20337;-86
2021/12/08 00:29:46;;;;;;;;;;;0.30;99.90;;;;;;5088744;28;19931;-87
2021/12/08 00:32:12;;;;;;;;;;;0.40;99.90;;;;;;5090252;28;19924;-84
2021/12/08 00:34:40;;;;;;;;;;;0.40;99.90;;;;;;5088416;28;19924;-86
2021/12/08 00:37:07;;;;;;;;;;;0.40;99.90;;;;;;5088996;28;19924;-85
2021/12/08 00:39:33;;;;;;;;;;;0.90;99.90;;;;;;5091899;28;19980;-85
2021/12/08 00:42:00;;;;;;;;;;;0.30;99.90;;;;;;5093924;28;20383;-86
2021/12/08 00:44:27;;;;;;;;;;;0.30;99.90;;;;;;5092865;28;19964;-86
2021/12/08 00:46:53;;;;;;;;;;;0.70;99.90;;;;;;5089821;28;19947;-86
2021/12/08 00:49:20;;;;;;;;;;;-0.30;99.90;;;;;;5093241;28;19932;-85
2021/12/08 00:51:48;;;;;;;;;;;0.20;99.90;;;;;;5092879;28;19995;-84
2021/12/08 00:54:14;;;;;;;;;;;0.30;99.90;;;;;;5093588;28;19931;-84
2021/12/08 00:56:41;;;;;;;;;;;0.30;99.90;;;;;;5093829;28;20216;-85
2021/12/08 00:59:07;;;;;;;;;;;0.30;99.90;;;;;;5093568;28;19950;-84
2021/12/08 01:01:33;;;;;;;;;;;0.50;99.90;;;;;;5096349;28;19924;-83
2021/12/08 01:04:00;;;;;;;;;;;0.30;99.90;;;;;;5092767;28;19925;-85
2021/12/08 01:06:27;;;;;;;;;;;0.50;99.90;;;;;;5085952;28;19924;-85
2021/12/08 01:08:55;;;;;;;;;;;0.10;99.90;;;;;;5084598;28;19924;-84
2021/12/08 01:11:21;;;;;;;;;;;0.10;99.90;;;;;;5082996;28;20189;-84
2021/12/08 01:13:49;;;;;;;;;;;0.30;99.90;;;;;;5080830;28;19925;-85
2021/12/08 01:16:17;;;;;;;;;;;0.30;99.90;;;;;;5081858;28;19924;-84
2021/12/08 01:18:43;;;;;;;;;;;0.30;99.90;;;;;;5083396;28;19925;-86
2021/12/08 01:21:10;;;;;;;;;;;0.30;99.90;;;;;;5083064;28;19974;-84
2021/12/08 01:23:38;;;;;;;;;;;0.30;99.90;;;;;;5087358;28;19932;-83
2021/12/08 01:26:06;;;;;;;;;;;0.90;99.90;;;;;;5084117;28;19995;-85
2021/12/08 01:28:32;;;;;;;;;;;0.30;99.90;;;;;;5084864;28;20351;-83
2021/12/08 01:31:01;;;;;;;;;;;0.10;99.90;;;;;;5085082;28;19929;-84
2021/12/08 01:33:30;;;;;;;;;;;0.20;99.90;;;;;;5085549;28;19931;-86
2021/12/08 01:35:57;;;;;;;;;;;0.20;99.90;;;;;;5084217;28;19995;-86
2021/12/08 01:38:24;;;;;;;;;;;0.00;99.90;;;;;;5085510;28;19924;-86
2021/12/08 01:40:50;;;;;;;;;;;-0.10;99.90;;;;;;5088024;28;19940;-86
2021/12/08 01:43:25;;;;;;;;;;;0.00;99.90;;;;;;5093414;28;19951;-86
2021/12/08 01:45:59;;;;;;;;;;;0.20;99.90;;;;;;5096466;28;19979;-85
2021/12/08 01:48:26;;;;;;;;;;;0.60;99.90;;;;;;5089758;28;20329;-86
2021/12/08 01:50:54;;;;;;;;;;;0.50;99.90;;;;;;5080405;28;19994;-86
2021/12/08 01:53:20;;;;;;;;;;;-0.20;99.90;;;;;;5084309;28;19936;-86
2021/12/08 01:55:47;;;;;;;;;;;0.30;99.90;;;;;;5086287;28;19924;-85
2021/12/08 01:58:14;;;;;;;;;;;0.30;99.90;;;;;;5086680;28;19924;-86
2021/12/08 02:00:43;;;;;;;;;;;0.20;99.90;;;;;;5087864;28;19946;-86
2021/12/08 02:03:10;;;;;;;;;;;-1.50;99.90;;;;;;5089780;28;19924;-86
2021/12/08 02:05:36;;;;;;;;;;;0.10;99.90;;;;;;5086055;28;19994;-86
2021/12/08 02:08:03;;;;;;;;;;;-0.50;99.90;;;;;;5084583;28;19935;-86
2021/12/08 02:10:30;;;;;;;;;;;0.10;99.90;;;;;;5084238;28;19970;-86
2021/12/08 02:12:56;;;;;;;;;;;0.20;99.90;;;;;;5088559;28;19928;-86
2021/12/08 02:15:23;;;;;;;;;;;0.20;99.90;;;;;;5090219;28;19925;-86
2021/12/08 02:17:52;;;;;;;;;;;0.10;99.90;;;;;;5091458;28;19951;-86
2021/12/08 02:20:19;;;;;;;;;;;0.10;99.90;;;;;;5092836;28;19925;-86
2021/12/08 02:22:47;;;;;;;;;;;0.10;99.90;;;;;;5087713;28;19924;-87
2021/12/08 02:25:15;;;;;;;;;;;0.20;99.90;;;;;;5086041;28;19931;-87
2021/12/08 02:27:42;;;;;;;;;;;0.10;99.90;;;;;;5085357;28;19931;-86
2021/12/08 02:30:15;;;;;;;;;;;-0.40;99.90;;;;;;5085330;28;19970;-86
2021/12/08 02:46:46;;;;;;;;;;;0.10;99.90;;;;;;5094511;28;19955;-85
2021/12/08 02:49:14;;;;;;;;;;;0.10;99.90;;;;;;5099307;28;19958;-86
2021/12/08 02:51:43;;;;;;;;;;;0.10;99.90;;;;;;5102331;28;19950;-84
2021/12/08 02:54:11;;;;;;;;;;;0.10;99.90;;;;;;5099771;28;19912;-86
2021/12/08 02:56:38;;;;;;;;;;;-1.30;99.90;;;;;;5101500;28;19935;-86
2021/12/08 02:59:04;;;;;;;;;;;0.10;99.90;;;;;;5093527;28;19925;-86
2021/12/08 03:01:31;;;;;;;;;;;-0.10;99.90;;;;;;5095708;28;19913;-85
2021/12/08 03:03:58;;;;;;;;;;;0.10;99.90;;;;;;5086169;28;19952;-85
2021/12/08 03:06:24;;;;;;;;;;;-0.10;99.90;;;;;;5086765;28;19925;-86
2021/12/08 03:08:51;;;;;;;;;;;-0.10;99.90;;;;;;5087061;28;19924;-86
2021/12/08 03:11:19;;;;;;;;;;;0.40;99.90;;;;;;5086854;28;19924;-86
2021/12/08 03:16:14;;;;;;;;;;;0.10;99.90;;;;;;5096265;28;19935;-80
2021/12/08 03:18:41;;;;;;;;;;;0.20;99.90;;;;;;5097250;28;19931;-81
2021/12/08 03:21:08;;;;;;;;;;;0.30;99.90;;;;;;5099911;28;19939;-80
2021/12/08 03:23:47;;;;;;;;;;;0.20;99.90;;;;;;5098746;28;19913;-83
2021/12/08 03:26:13;;;;;;;;;;;0.20;99.90;;;;;;5077369;28;19935;-80
2021/12/08 03:28:58;;;;;;;;;;;0.50;99.90;;;;;;5076617;28;19909;-80
2021/12/08 03:31:30;;;;;;;;;;;0.00;99.90;;;;;;5074691;28;19959;-80
2021/12/08 03:33:56;;;;;;;;;;;-0.30;99.90;;;;;;5074962;28;20013;-80
2021/12/08 03:36:23;;;;;;;;;;;-0.40;99.90;;;;;;5076777;28;20024;-81
2021/12/08 03:38:49;;;;;;;;;;;0.40;99.90;;;;;;5078481;28;19925;-81
2021/12/08 03:41:16;;;;;;;;;;;-0.30;99.90;;;;;;5078995;28;19913;-80
2021/12/08 03:43:44;;;;;;;;;;;0.30;99.90;;;;;;5079176;28;19924;-81
2021/12/08 03:46:13;;;;;;;;;;;0.10;99.90;;;;;;5078519;28;19925;-81
2021/12/08 03:48:47;;;;;;;;;;;0.00;99.90;;;;;;5079130;28;20698;-80
2021/12/08 03:51:13;;;;;;;;;;;0.10;99.90;;;;;;5079632;28;19925;-81
2021/12/08 03:53:40;;;;;;;;;;;0.10;99.90;;;;;;5077684;28;19948;-80
2021/12/08 03:56:07;;;;;;;;;;;-0.40;99.90;;;;;;5076124;28;19925;-80
2021/12/08 03:58:33;;;;;;;;;;;0.00;99.90;;;;;;5075393;28;19951;-80
2021/12/08 04:01:01;;;;;;;;;;;-0.50;99.90;;;;;;5079003;28;19913;-81
2021/12/08 04:03:31;;;;;;;;;;;0.00;99.90;;;;;;5078127;28;19964;-79
2021/12/08 04:06:01;;;;;;;;;;;0.10;99.90;;;;;;5075068;28;19979;-81
2021/12/08 04:08:31;;;;;;;;;;;0.00;99.90;;;;;;5071967;28;19925;-82
2021/12/08 04:10:59;;;;;;;;;;;0.10;99.90;;;;;;5073417;28;19929;-80
2021/12/08 04:13:26;;;;;;;;;;;0.10;99.90;;;;;;5078198;28;20023;-81
2021/12/08 04:15:53;;;;;;;;;;;0.10;99.90;;;;;;5079112;28;19951;-82
2021/12/08 04:18:21;;;;;;;;;;;0.50;99.90;;;;;;5078962;28;19932;-81
2021/12/08 04:20:49;;;;;;;;;;;0.10;99.90;;;;;;5079481;28;19956;-81
2021/12/08 04:23:17;;;;;;;;;;;0.10;99.90;;;;;;5078859;28;19955;-81
2021/12/08 04:25:45;;;;;;;;;;;0.20;99.90;;;;;;5079013;28;19920;-81
2021/12/08 04:28:13;;;;;;;;;;;-0.20;99.90;;;;;;5079036;28;19947;-81
2021/12/08 04:30:41;;;;;;;;;;;-0.80;99.90;;;;;;5077682;28;19950;-80
2021/12/08 04:33:08;;;;;;;;;;;-0.30;99.90;;;;;;5075137;28;19925;-80
2021/12/08 04:35:37;;;;;;;;;;;0.20;99.90;;;;;;5071604;28;19924;-84
2021/12/08 04:38:07;;;;;;;;;;;0.20;99.90;;;;;;5069267;28;19925;-82
2021/12/08 04:40:44;;;;;;;;;;;0.20;99.90;;;;;;5069232;28;19931;-82
2021/12/08 04:43:18;;;;;;;;;;;0.20;99.90;;;;;;5068494;28;19943;-82
2021/12/08 04:45:54;;;;;;;;;;;-0.10;99.90;;;;;;5069947;28;20015;-82
2021/12/08 04:48:36;;;;;;;;;;;-0.20;99.90;;;;;;5062847;28;19925;-82
2021/12/08 04:51:21;;;;;;;;;;;0.10;99.90;;;;;;5068102;28;19925;-82
2021/12/08 05:00:11;;;;;;;;;;;0.30;99.90;;;;;;5069616;28;19925;-81
2021/12/08 05:02:40;;;;;;;;;;;0.30;99.90;;;;;;5069733;28;19947;-80
2021/12/08 05:07:55;;;;;;;;;;;0.20;99.90;;;;;;5070939;28;20003;-79
2021/12/08 05:10:28;;;;;;;;;;;0.10;99.90;;;;;;5071451;28;19951;-81
2021/12/08 05:12:55;;;;;;;;;;;0.20;99.90;;;;;;5069919;28;19924;-82
2021/12/08 05:15:24;;;;;;;;;;;0.20;99.90;;;;;;5072677;28;19925;-81
2021/12/08 05:17:53;;;;;;;;;;;0.20;99.90;;;;;;5074062;28;20382;-80
2021/12/08 05:20:22;;;;;;;;;;;0.10;99.90;;;;;;5071612;28;20394;-80
2021/12/08 05:22:52;;;;;;;;;;;0.20;99.90;;;;;;5071015;28;19929;-82
2021/12/08 05:25:22;;;;;;;;;;;0.30;99.90;;;;;;5067190;28;19958;-81
2021/12/08 05:27:51;;;;;;;;;;;0.30;99.90;;;;;;5065608;28;19929;-82
2021/12/08 05:30:19;;;;;;;;;;;-0.40;99.90;;;;;;5068619;28;19925;-82
2021/12/08 05:32:46;;;;;;;;;;;0.00;99.90;;;;;;5070106;28;19929;-80
2021/12/08 05:35:14;;;;;;;;;;;0.20;99.90;;;;;;5069640;28;19925;-79
2021/12/08 05:37:40;;;;;;;;;;;0.50;99.90;;;;;;5068015;28;19932;-81
2021/12/08 05:40:10;;;;;;;;;;;0.00;99.90;;;;;;5068452;28;19925;-84
2021/12/08 05:42:37;;;;;;;;;;;0.00;99.90;;;;;;5069065;28;19924;-82
2021/12/08 05:45:04;;;;;;;;;;;0.00;99.90;;;;;;5069939;28;19991;-81
2021/12/08 05:47:31;;;;;;;;;;;-0.90;99.90;;;;;;5067012;28;19925;-82
2021/12/08 05:49:58;;;;;;;;;;;-0.10;99.90;;;;;;5065839;28;19925;-82
2021/12/08 05:52:25;;;;;;;;;;;-0.10;99.90;;;;;;5064257;28;20410;-81
2021/12/08 05:54:52;;;;;;;;;;;-0.10;99.90;;;;;;5064190;28;19947;-82
2021/12/08 05:57:20;;;;;;;;;;;-0.10;99.90;;;;;;5064682;28;19929;-82
2021/12/08 05:59:48;;;;;;;;;;;-0.10;99.90;;;;;;5064290;28;19967;-82
2021/12/08 06:02:16;;;;;;;;;;;-0.20;99.90;;;;;;5063465;28;19925;-80
2021/12/08 06:04:43;;;;;;;;;;;-0.20;99.90;;;;;;5058011;28;19932;-81
2021/12/08 06:07:10;;;;;;;;;;;-0.10;99.90;;;;;;5059434;28;19925;-82
2021/12/08 06:09:37;;;;;;;;;;;-0.10;99.90;;;;;;5063141;28;19925;-82
2021/12/08 06:12:05;;;;;;;;;;;-0.20;99.90;;;;;;5064427;28;20330;-81
2021/12/08 06:14:33;;;;;;;;;;;-0.20;99.90;;;;;;5063364;28;19925;-82
2021/12/08 06:17:01;;;;;;;;;;;-0.10;99.90;;;;;;5063583;28;19936;-82
2021/12/08 06:19:27;;;;;;;;;;;-0.20;99.90;;;;;;5063319;28;19948;-83
2021/12/08 06:21:54;;;;;;;;;;;0.00;99.90;;;;;;5061795;28;19925;-80
2021/12/08 06:24:21;;;;;;;;;;;-0.30;99.90;;;;;;5062278;28;19968;-80
2021/12/08 06:26:48;;;;;;;;;;;-0.10;99.90;;;;;;5069375;28;19932;-82
2021/12/08 06:29:17;;;;;;;;;;;-0.40;99.90;;;;;;5066607;28;19925;-82
2021/12/08 06:31:46;;;;;;;;;;;-0.10;99.90;;;;;;5072039;28;19932;-81
2021/12/08 06:34:12;;;;;;;;;;;-0.10;99.90;;;;;;5069562;28;19925;-80
2021/12/08 06:36:43;;;;;;;;;;;-0.20;99.90;;;;;;5066269;28;19929;-82
2021/12/08 06:39:16;;;;;;;;;;;-0.30;99.90;;;;;;5064991;28;20010;-81
2021/12/08 06:41:44;;;;;;;;;;;-0.10;99.90;;;;;;5070847;28;19924;-79
2021/12/08 06:44:16;;;;;;;;;;;-0.10;99.90;;;;;;5069758;28;19925;-82
2021/12/08 06:46:46;;;;;;;;;;;-0.20;99.90;;;;;;5075536;28;20079;-80
2021/12/08 06:49:14;;;;;;;;;;;-0.20;99.90;;;;;;5068955;28;20360;-80
2021/12/08 06:51:42;;;;;;;;;;;-0.10;99.90;;;;;;5066458;28;19970;-80
2021/12/08 06:54:11;;;;;;;;;;;-0.10;99.90;;;;;;5065309;28;20351;-82
2021/12/08 06:56:40;;;;;;;;;;;-0.10;99.90;;;;;;5064705;28;19925;-82
2021/12/08 06:59:08;;;;;;;;;;;-0.10;99.90;;;;;;5069103;28;19932;-81
2021/12/08 07:01:43;;;;;;;;;;;0.30;99.90;;;;;;5065936;28;19925;-81
2021/12/08 07:04:26;;;;;;;;;;;0.00;99.90;;;;;;5061563;28;20028;-81
2021/12/08 07:06:59;;;;;;;;;;;0.00;99.90;;;;;;5057482;28;20299;-82
2021/12/08 07:09:30;;;;;;;;;;;0.00;99.90;;;;;;5061988;28;19925;-82
2021/12/08 07:11:57;;;;;;;;;;;-0.10;99.90;;;;;;5057127;28;19932;-83
2021/12/08 07:14:26;;;;;;;;;;;0.10;99.90;;;;;;5056567;28;19925;-83
2021/12/08 07:16:54;;;;;;;;;;;0.00;99.90;;;;;;5059450;28;19931;-83
2021/12/08 07:19:32;;;;;;;;;;;0.00;99.90;;;;;;5059829;28;19958;-80
2021/12/08 07:21:59;;;;;;;;;;;0.00;99.90;;;;;;5068129;28;19925;-80
2021/12/08 07:24:27;;;;;;;;;;;0.00;99.90;;;;;;5066877;28;20378;-80
2021/12/08 07:26:56;;;;;;;;;;;0.00;99.90;;;;;;5063358;28;19924;-80
2021/12/08 07:29:23;;;;;;;;;;;0.00;99.90;;;;;;5063182;28;20279;-80
2021/12/08 07:31:53;;;;;;;;;;;0.10;99.90;;;;;;5062348;28;20387;-82
2021/12/08 07:34:22;;;;;;;;;;;0.00;99.90;;;;;;5063984;28;19987;-81
2021/12/08 07:36:51;;;;;;;;;;;0.10;99.90;;;;;;5064927;28;19968;-82
2021/12/08 07:39:20;;;;;;;;;;;0.10;99.90;;;;;;5063903;28;19924;-82
2021/12/08 07:41:52;;;;;;;;;;;0.00;99.90;;;;;;5063912;28;19924;-81
2021/12/08 07:44:18;;;;;;;;;;;0.10;99.90;;;;;;5074050;28;19939;-82
2021/12/08 07:46:48;;;;;;;;;;;0.10;99.90;;;;;;5074470;28;19925;-79
2021/12/08 07:49:16;;;;;;;;;;;0.10;99.90;;;;;;5071608;28;20340;-79
2021/12/08 07:51:45;;;;;;;;;;;0.10;99.90;;;;;;5072515;28;19932;-80
2021/12/08 07:54:12;;;;;;;;;;;0.00;99.90;;;;;;5072797;28;19947;-79
2021/12/08 07:56:39;;;;;;;;;;;0.10;99.90;;;;;;5071586;28;19928;-81
2021/12/08 07:59:08;;;;;;;;;;;0.10;99.90;;;;;;5074611;28;19924;-80
2021/12/08 08:01:36;;;;;;;;;;;0.30;99.90;;;;;;5072690;28;19926;-80
2021/12/08 08:04:04;;;;;;;;;;;0.10;99.90;;;;;;5074314;28;19909;-80
2021/12/08 08:06:33;;;;;;;;;;;0.40;99.90;;;;;;5073510;28;19936;-80
2021/12/08 08:09:01;;;;;;;;;;;0.20;99.90;;;;;;5076962;28;19925;-81
2021/12/08 08:11:30;;;;;;;;;;;0.30;99.90;;;;;;5076457;28;20375;-80
2021/12/08 08:13:57;;;;;;;;;;;0.30;99.90;;;;;;5074777;28;20366;-80
2021/12/08 08:16:25;;;;;;;;;;;0.20;99.90;;;;;;5069202;28;19932;-82
2021/12/08 08:18:58;;;;;;;;;;;0.40;99.90;;;;;;5072568;28;19925;-81
2021/12/08 08:21:30;;;;;;;;;;;0.40;99.90;;;;;;5074315;28;20011;-82
2021/12/08 08:23:58;;;;;;;;;;;0.60;99.90;;;;;;5071725;28;19924;-82
2021/12/08 08:26:26;;;;;;;;;;;0.50;99.90;;;;;;5066110;28;20299;-81
2021/12/08 08:28:53;;;;;;;;;;;0.50;99.90;;;;;;5063944;28;19932;-81
2021/12/08 08:31:19;;;;;;;;;;;;;;;;;;5061209;28;19929;-82
2021/12/08 08:33:46;;;;;;;;;;;0.60;99.90;;;;;;5062642;28;19931;-82
2021/12/08 08:36:15;;;;;;;;;;;0.60;99.90;;;;;;5063771;28;20043;-82
2021/12/08 08:38:45;;;;;;;;;;;0.60;99.90;;;;;;5061661;28;19932;-82
2021/12/08 08:41:16;;;;;;;;;;;0.50;99.90;;;;;;5060600;28;19924;-81
2021/12/08 08:43:44;;;;;;;;;;;0.50;99.90;;;;;;5060318;28;20022;-81
2021/12/08 08:46:23;;;;;;;;;;;0.60;99.90;;;;;;5060316;28;19925;-83
2021/12/08 08:48:51;;;;;;;;;;;0.70;99.90;;;;;;5061753;28;19924;-80
2021/12/08 08:51:19;;;;;;;;;;;0.60;99.90;;;;;;5061530;28;19925;-83
2021/12/08 08:53:47;;;;;;;;;;;0.60;99.90;;;;;;5066813;28;19924;-81
2021/12/08 08:56:15;;;;;;;;;;;0.60;99.90;;;;;;5064531;28;19932;-80
2021/12/08 08:58:47;;;;;;;;;;;0.70;99.90;;;;;;5068817;28;19931;-83
2021/12/08 09:01:17;;;;;;;;;;;0.60;99.90;;;;;;5065896;28;19925;-82
2021/12/08 09:03:46;;;;;;;;;;;0.70;99.90;;;;;;5063708;28;19924;-82
2021/12/08 09:06:14;;;;;;;;;;;0.70;99.90;;;;;;5074408;28;19932;-79
2021/12/08 09:08:43;;;;;;;;;;;0.60;99.90;;;;;;5074050;28;19964;-81
2021/12/08 09:11:12;;;;;;;;;;;0.60;99.90;;;;;;5068869;28;19929;-82
2021/12/08 09:13:42;;;;;;;;;;;0.70;99.90;;;;;;5067957;28;19991;-82
2021/12/08 09:16:11;;;;;;;;;;;0.70;99.90;;;;;;5108477;22;19924;-86
2021/12/08 09:18:46;;;;;;;;;;;0.60;99.90;;;;;;5089301;28;19925;-84
2021/12/08 09:21:18;;;;;;;;;;;0.80;99.90;;;;;;5089234;28;20287;-85
2021/12/08 09:23:47;;;;;;;;;;;0.80;99.90;;;;;;5089676;28;19928;-84
2021/12/08 09:26:15;;;;;;;;;;;0.90;99.90;;;;;;5088550;28;19924;-85
2021/12/08 09:28:44;;;;;;;;;;;0.70;99.90;;;;;;5088327;28;19932;-84
2021/12/08 09:31:16;;;;;;;;;;;0.80;99.90;;;;;;5091410;28;19924;-84
2021/12/08 09:33:47;;;;;;;;;;;0.90;99.90;;;;;;5092245;28;20019;-85
2021/12/08 09:36:15;;;;;;;;;;;0.90;99.90;;;;;;5094853;28;20062;-84
2021/12/08 09:38:44;;;;;;;;;;;0.80;99.90;;;;;;5093300;28;19946;-83
2021/12/08 09:41:13;;;;;;;;;;;0.90;99.90;;;;;;5091849;28;19924;-85
2021/12/08 09:43:42;;;;;;;;;;;1.70;99.90;;;;;;5091832;28;19931;-84
2021/12/08 09:46:10;;;;;;;;;;;1.00;99.90;;;;;;5092136;28;19947;-83
2021/12/08 09:48:38;;;;;;;;;;;0.60;99.90;;;;;;5096976;28;19924;-84
2021/12/08 09:51:06;;;;;;;;;;;0.70;99.90;;;;;;5098672;28;19924;-84
2021/12/08 09:53:34;;;;;;;;;;;0.90;99.90;;;;;;5098359;28;19947;-83
2021/12/08 09:56:01;;;;;;;;;;;0.90;99.90;;;;;;5098376;28;19912;-84
2021/12/08 09:58:27;;;;;;;;;;;0.90;99.90;;;;;;5094763;28;19925;-86
2021/12/08 10:00:57;;;;;;;;;;;1.10;99.90;;;;;;5090756;28;19928;-84
2021/12/08 10:03:24;;;;;;;;;;;1.10;99.90;;;;;;5088775;28;19931;-85
2021/12/08 10:05:51;;;;;;;;;;;1.10;99.90;;;;;;5087146;28;19925;-85
2021/12/08 10:08:19;;;;;;;;;;;1.10;99.90;;;;;;5086246;28;20245;-86
2021/12/08 10:10:46;;;;;;;;;;;1.10;99.90;;;;;;5090298;28;19924;-84
2021/12/08 10:13:14;;;;;;;;;;;1.10;99.90;;;;;;5089321;28;19994;-84
2021/12/08 10:15:41;;;;;;;;;;;1.10;99.90;;;;;;5084115;28;19924;-84
2021/12/08 10:18:08;;;;;;;;;;;1.30;99.90;;;;;;5086890;28;19924;-85
2021/12/08 10:20:36;;;;;;;;;;;1.30;99.90;;;;;;5090215;28;19993;-85
2021/12/08 10:23:10;;;;;;;;;;;1.30;99.90;;;;;;5094997;28;19924;-85
2021/12/08 10:25:41;;;;;;;;;;;1.40;99.90;;;;;;5097412;28;19924;-85
2021/12/08 10:28:09;;;;;;;;;;;1.40;99.90;;;;;;5099049;28;19915;-84
2021/12/08 10:30:38;;;;;;;;;;;1.30;99.90;;;;;;5099041;28;19920;-83
2021/12/08 10:33:11;;;;;;;;;;;;;;;;;;5099138;28;19916;-83
2021/12/08 10:35:43;;;;;;;;;;;1.30;99.90;;;;;;5097361;28;19908;-85
2021/12/08 10:38:11;;;;;;;;;;;1.30;99.90;;;;;;5085257;28;19970;-86
2021/12/08 10:40:39;;;;;;;;;;;1.00;99.90;;;;;;5086112;28;19924;-87
2021/12/08 10:43:16;;;;;;;;;;;1.40;99.90;;;;;;5093279;28;19924;-86
2021/12/08 10:45:42;;;;;;;;;;;1.50;99.90;;;;;;5097520;28;19924;-84
2021/12/08 10:48:10;;;;;;;;;;;1.50;99.90;;;;;;5095607;28;19916;-85
2021/12/08 10:56:09;;;;;;;;;;;1.60;99.90;;;;;;5091250;28;19923;-84
2021/12/08 10:58:39;;;;;;;;;;;1.70;99.90;;;;;;5098367;28;19913;-84
2021/12/08 11:01:09;;;;;;;;;;;0.70;99.90;;;;;;5088463;28;19932;-85
2021/12/08 11:03:36;;;;;;;;;;;1.60;99.90;;;;;;5085935;28;19931;-86
2021/12/08 11:06:04;;;;;;;;;;;1.50;99.90;;;;;;5089990;28;19974;-85
2021/12/08 11:08:32;;;;;;;;;;;1.50;99.90;;;;;;5090451;28;19924;-87
2021/12/08 11:11:00;;;;;;;;;;;1.50;99.90;;;;;;5089644;28;19928;-87
2021/12/08 11:13:29;;;;;;;;;;;1.40;99.90;;;;;;5090265;28;19925;-86
2021/12/08 11:16:04;;;;;;;;;;;1.60;99.90;;;;;;5091773;28;19947;-87
2021/12/08 11:18:31;;;;;;;;;;;1.60;99.90;;;;;;5091048;28;19970;-85
2021/12/08 11:20:59;;;;;;;;;;;1.60;99.90;;;;;;5089899;28;19924;-87
2021/12/08 11:26:13;;;;;;;;;;;1.90;99.90;;;;;;5089792;28;19921;-86
2021/12/08 11:28:41;;;;;;;;;;;1.70;99.90;;;;;;5094573;28;19924;-86
2021/12/08 11:31:09;;;;;;;;;;;1.70;99.90;;;;;;5097683;28;19924;-86
2021/12/08 11:33:41;;;;;;;;;;;1.70;99.90;;;;;;5100727;28;19931;-88
2021/12/08 11:36:13;;;;;;;;;;;1.80;99.90;;;;;;5101612;28;19984;-85
2021/12/08 11:38:40;;;;;;;;;;;1.70;99.90;;;;;;5101194;28;19935;-86
2021/12/08 11:41:09;;;;;;;;;;;1.60;99.90;;;;;;5096261;28;19986;-86
2021/12/08 11:43:36;;;;;;;;;;;1.60;99.90;;;;;;5089727;28;19931;-85
2021/12/08 11:46:14;;;;;;;;;;;1.70;99.90;;;;;;5087254;28;19931;-85
2021/12/08 11:48:51;;;;;;;;;;;1.70;99.90;;;;;;5096557;28;19928;-87
2021/12/08 11:51:18;;;;;;;;;;;2.30;99.90;;;;;;5090933;28;19924;-87
2021/12/08 11:53:45;;;;;;;;;;;1.80;99.90;;;;;;5089960;28;19935;-86
2021/12/08 11:56:26;;;;;;;;;;;1.60;99.90;;;;;;5094820;28;19924;-86
2021/12/08 11:58:56;;;;;;;;;;;1.60;99.90;;;;;;5089402;28;19932;-86
2021/12/08 12:01:24;;;;;;;;;;;1.60;99.90;;;;;;5095265;28;19912;-86
2021/12/08 12:03:51;;;;;;;;;;;1.60;99.90;;;;;;5097541;28;19980;-86
2021/12/08 12:06:17;;;;;;;;;;;1.60;99.90;;;;;;5094067;28;20302;-87
2021/12/08 12:08:46;;;;;;;;;;;1.60;99.90;;;;;;5089007;28;20019;-86
2021/12/08 12:11:13;;;;;;;;;;;1.80;99.90;;;;;;5089475;28;19924;-87
2021/12/08 12:13:40;;;;;;;;;;;1.90;99.90;;;;;;5088424;28;19924;-87
2021/12/08 12:16:06;;;;;;;;;;;1.80;99.90;;;;;;5088547;28;19924;-86
2021/12/08 12:18:34;;;;;;;;;;;1.90;99.90;;;;;;5091779;28;19924;-85
2021/12/08 12:21:10;;;;;;;;;;;1.90;99.90;;;;;;5095689;28;19924;-86
2021/12/08 12:23:47;;;;;;;;;;;1.90;99.90;;;;;;5095907;28;19925;-87
2021/12/08 12:26:17;;;;;;;;;;;1.90;99.90;;;;;;5097956;28;19925;-87
2021/12/08 12:28:51;;;;;;;;;;;1.90;99.90;;;;;;5093210;28;19986;-86
2021/12/08 12:31:22;;;;;;;;;;;2.10;99.90;;;;;;5088462;28;20394;-87
2021/12/08 12:33:51;;;;;;;;;;;2.00;99.90;;;;;;5086920;28;19925;-87
2021/12/08 12:36:18;;;;;;;;;;;2.00;99.90;;;;;;5087580;28;19924;-87
2021/12/08 12:38:48;;;;;;;;;;;1.90;99.90;;;;;;5087282;28;19928;-87
2021/12/08 12:41:23;;;;;;;;;;;2.00;99.90;;;;;;5089457;28;19933;-87
2021/12/08 12:43:50;;;;;;;;;;;1.30;99.90;;;;;;5088530;28;19951;-87
2021/12/08 12:46:17;;;;;;;;;;;2.00;99.90;;;;;;5089391;28;19947;-87
2021/12/08 12:48:50;;;;;;;;;;;2.10;99.90;;;;;;5091133;28;19928;-85
2021/12/08 12:51:21;;;;;;;;;;;2.00;99.90;;;;;;5091393;28;19924;-87
2021/12/08 12:53:50;;;;;;;;;;;2.00;99.90;;;;;;5092422;28;19924;-87
2021/12/08 12:56:17;;;;;;;;;;;2.00;99.90;;;;;;5089551;28;20379;-87
2021/12/08 12:58:46;;;;;;;;;;;1.90;99.90;;;;;;5089574;28;19932;-86
2021/12/08 13:01:13;;;;;;;;;;;1.40;99.90;;;;;;5098168;28;19912;-85
2021/12/08 13:03:43;;;;;;;;;;;1.80;99.90;;;;;;5100529;28;19930;-86
2021/12/08 13:06:10;;;;;;;;;;;1.80;99.90;;;;;;5099596;28;20007;-86
2021/12/08 13:08:40;;;;;;;;;;;1.80;99.90;;;;;;5093533;28;19925;-86
2021/12/08 13:11:29;;;;;;;;;;;1.80;99.90;;;;;;5089898;28;19925;-87
2021/12/08 13:13:56;;;;;;;;;;;1.80;99.90;;;;;;5087206;28;19924;-88
2021/12/08 13:16:24;;;;;;;;;;;1.80;99.90;;;;;;5089428;28;19987;-86
2021/12/08 13:18:54;;;;;;;;;;;1.90;99.90;;;;;;5089806;28;19924;-86
2021/12/08 13:21:37;;;;;;;;;;;1.80;99.90;;;;;;5090340;28;19932;-86
2021/12/08 13:24:05;;;;;;;;;;;1.80;99.90;;;;;;5092815;28;19924;-85
2021/12/08 13:26:46;;;;;;;;;;;1.60;99.90;;;;;;5096807;28;19924;-85
2021/12/08 13:29:19;;;;;;;;;;;1.80;99.90;;;;;;5094270;28;19932;-87
2021/12/08 13:31:59;;;;;;;;;;;2.00;99.90;;;;;;5094949;28;19924;-87
2021/12/08 13:34:25;;;;;;;;;;;1.90;99.90;;;;;;5089862;28;19924;-86
2021/12/08 13:36:52;;;;;;;;;;;1.90;99.90;;;;;;5089440;28;19935;-86
2021/12/08 13:39:24;;;;;;;;;;;1.90;99.90;;;;;;5088632;28;19932;-86
2021/12/08 13:41:59;;;;;;;;;;;1.90;99.90;;;;;;5087086;28;19924;-87
2021/12/08 13:44:27;;;;;;;;;;;1.80;99.90;;;;;;5087297;28;19924;-87
2021/12/08 13:46:55;;;;;;;;;;;1.70;99.90;;;;;;5087295;28;20018;-87
2021/12/08 13:49:24;;;;;;;;;;;1.60;99.90;;;;;;5087484;28;19925;-87
2021/12/08 13:52:14;;;;;;;;;;;1.80;99.90;;;;;;5096814;28;19915;-85
2021/12/08 13:54:42;;;;;;;;;;;1.80;99.90;;;;;;5099474;28;19912;-84
2021/12/08 13:57:24;;;;;;;;;;;2.40;99.90;;;;;;5099309;28;19913;-86
2021/12/08 13:59:51;;;;;;;;;;;1.70;99.90;;;;;;5097766;28;19924;-86
2021/12/08 14:02:19;;;;;;;;;;;1.70;99.90;;;;;;5087916;28;19924;-86
2021/12/08 14:04:45;;;;;;;;;;;1.70;99.90;;;;;;5082689;28;19946;-86
2021/12/08 14:07:15;;;;;;;;;;;1.60;99.90;;;;;;5084617;28;20371;-87
2021/12/08 14:09:43;;;;;;;;;;;1.80;99.90;;;;;;5086501;28;20271;-87
2021/12/08 14:12:10;;;;;;;;;;;1.70;99.90;;;;;;5093055;28;19924;-85
2021/12/08 14:14:36;;;;;;;;;;;1.70;99.90;;;;;;5091841;28;19924;-87
2021/12/08 14:17:03;;;;;;;;;;;1.60;99.90;;;;;;5090807;28;19925;-86
2021/12/08 14:19:36;;;;;;;;;;;1.60;99.90;;;;;;5092710;28;19947;-88
2021/12/08 14:22:03;;;;;;;;;;;1.60;99.90;;;;;;5094396;28;19924;-86
2021/12/08 14:24:30;;;;;;;;;;;1.60;99.90;;;;;;5094753;28;19954;-86
2021/12/08 14:26:58;;;;;;;;;;;1.50;99.90;;;;;;5093097;28;19925;-86
2021/12/08 14:29:25;;;;;;;;;;;1.50;99.90;;;;;;5094979;28;19971;-86
2021/12/08 14:31:52;;;;;;;;;;;1.40;99.90;;;;;;5095885;28;19924;-86
2021/12/08 14:34:20;;;;;;;;;;;0.80;99.90;;;;;;5094523;28;19934;-87
2021/12/08 14:36:47;;;;;;;;;;;1.50;99.90;;;;;;5089551;28;19935;-87
2021/12/08 14:39:19;;;;;;;;;;;1.60;99.90;;;;;;5090185;28;19925;-87
2021/12/08 14:41:50;;;;;;;;;;;1.60;99.90;;;;;;5093113;28;19924;-87
2021/12/08 14:44:20;;;;;;;;;;;1.50;99.90;;;;;;5102323;28;19920;-87
2021/12/08 14:46:48;;;;;;;;;;;1.40;99.90;;;;;;5102682;28;19924;-87
2021/12/08 14:49:17;;;;;;;;;;;1.40;99.90;;;;;;5102129;28;19909;-87
2021/12/08 14:51:44;;;;;;;;;;;1.50;99.90;;;;;;5096876;28;19964;-87
2021/12/08 14:54:11;;;;;;;;;;;1.50;99.90;;;;;;5094454;28;19932;-86
2021/12/08 14:56:38;;;;;;;;;;;1.50;99.90;;;;;;5094033;28;19924;-87
2021/12/08 14:59:05;;;;;;;;;;;1.40;99.90;;;;;;5094016;28;19924;-87
2021/12/08 15:01:34;;;;;;;;;;;1.50;99.90;;;;;;5093874;28;19924;-87
2021/12/08 15:04:00;;;;;;;;;;;1.30;99.90;;;;;;5092857;28;19931;-87
2021/12/08 15:06:27;;;;;;;;;;;1.40;99.90;;;;;;5095864;28;19985;-86
2021/12/08 15:08:53;;;;;;;;;;;1.30;99.90;;;;;;5099943;28;19928;-86
2021/12/08 15:11:21;;;;;;;;;;;1.20;99.90;;;;;;5097735;28;19955;-85
2021/12/08 15:13:47;;;;;;;;;;;1.30;99.90;;;;;;5093118;28;19929;-86
2021/12/08 15:16:18;;;;;;;;;;;1.30;99.90;;;;;;5102840;22;19970;-80